Time;durP1;ratioP1;P1;durP2;ratioP2;P2;SDS_P1;SDS_P2;PMS_P1;PMS_P2;Temp;Humidity;BMP_temperature;BMP_pressure;BME280_temperature;BME280_humidity;BME280_pressure;Samples;Min_cycle;Max_cycle;Signal;HPM_P1;HPM_P2
2021/12/06 00:00:08;;;;;;;5.50;2.78;;;1.70;99.90;;;;;;10383976;28;20045;-64
2021/12/06 00:05:12;;;;;;;7.07;2.88;;;1.50;99.90;;;;;;10384147;28;20045;-65
2021/12/06 00:10:14;;;;;;;4.65;2.00;;;1.40;99.90;;;;;;10383442;28;20469;-65
2021/12/06 00:15:16;;;;;;;4.13;2.35;;;1.30;99.90;;;;;;10379413;28;20716;-65
2021/12/06 00:20:18;;;;;;;6.35;2.55;;;1.30;99.90;;;;;;10387512;28;20045;-65
2021/12/06 00:25:21;;;;;;;8.00;2.95;;;1.20;99.90;;;;;;10385377;28;20053;-65
2021/12/06 00:30:23;;;;;;;12.85;3.58;;;1.20;99.90;;;;;;10382074;28;20064;-65
2021/12/06 00:35:25;;;;;;;7.82;2.97;;;1.10;99.90;;;;;;10381622;28;20466;-64
2021/12/06 00:40:36;;;;;;;8.57;3.30;;;1.20;99.90;;;;;;10379970;28;20056;-65
2021/12/06 00:45:38;;;;;;;7.93;2.95;;;1.20;99.90;;;;;;10386177;28;20377;-65
2021/12/06 00:50:42;;;;;;;8.35;3.08;;;1.30;99.90;;;;;;10384141;28;20488;-65
2021/12/06 00:55:44;;;;;;;6.03;2.42;;;1.30;99.90;;;;;;10384462;28;20140;-65
2021/12/06 01:00:48;;;;;;;9.45;3.67;;;1.50;99.90;;;;;;10381277;28;20049;-65
2021/12/06 01:05:50;;;;;;;5.28;2.55;;;1.50;99.90;;;;;;10383706;28;20050;-65
2021/12/06 01:10:52;;;;;;;11.07;2.95;;;1.60;99.90;;;;;;10382053;28;20099;-65
2021/12/06 01:15:55;;;;;;;6.40;2.75;;;1.70;99.90;;;;;;10378518;28;20095;-65
2021/12/06 01:21:07;;;;;;;3.70;1.77;;;1.70;99.90;;;;;;10383117;28;20496;-65
2021/12/06 01:31:44;;;;;;;5.03;1.98;;;1.90;99.90;;;;;;10382162;28;20069;-65
2021/12/06 01:42:08;;;;;;;3.55;2.00;;;2.00;99.90;;;;;;10387622;28;20081;-65
2021/12/06 01:47:16;;;;;;;3.15;1.58;;;2.00;99.90;;;;;;10387035;28;20046;-65
2021/12/06 01:52:40;;;;;;;3.75;1.70;;;2.10;99.90;;;;;;10390792;28;20064;-65
2021/12/06 01:57:42;;;;;;;6.38;2.03;;;2.10;99.90;;;;;;10391217;28;20077;-65
2021/12/06 02:02:44;;;;;;;4.07;1.10;;;2.10;99.90;;;;;;10390316;28;20049;-65
2021/12/06 02:07:46;;;;;;;3.65;1.35;;;2.10;99.90;;;;;;10391238;28;20046;-65
2021/12/06 02:12:50;;;;;;;4.30;1.75;;;2.10;99.90;;;;;;10389183;28;20053;-65
2021/12/06 02:18:02;;;;;;;5.30;1.67;;;2.10;99.90;;;;;;10386333;28;20050;-66
2021/12/06 02:23:04;;;;;;;4.53;1.70;;;2.10;99.90;;;;;;10390147;28;20053;-65
2021/12/06 02:28:06;;;;;;;9.52;1.80;;;2.20;99.90;;;;;;10385653;28;20076;-65
2021/12/06 02:33:08;;;;;;;8.95;2.03;;;2.30;99.90;;;;;;10398236;28;20057;-65
2021/12/06 02:38:09;;;;;;;7.72;2.95;;;2.30;99.90;;;;;;10387890;28;20041;-63
2021/12/06 02:43:13;;;;;;;7.90;3.10;;;2.30;99.90;;;;;;10389291;28;20053;-64
2021/12/06 02:48:16;;;;;;;9.85;2.65;;;2.40;99.90;;;;;;10388099;28;20126;-64
2021/12/06 02:53:19;;;;;;;5.53;2.15;;;2.40;99.90;;;;;;10387152;28;20500;-64
2021/12/06 03:03:37;;;;;;;6.20;2.60;;;2.40;99.90;;;;;;10382880;28;20073;-66
2021/12/06 03:09:01;;;;;;;9.13;2.65;;;2.30;99.90;;;;;;10387617;28;20107;-66
2021/12/06 03:14:04;;;;;;;4.82;2.08;;;2.40;99.90;;;;;;10386623;28;20565;-66
2021/12/06 03:19:07;;;;;;;4.63;2.22;;;2.40;99.90;;;;;;10386247;28;20041;-66
2021/12/06 03:24:08;;;;;;;5.60;2.10;;;2.40;99.90;;;;;;10385930;28;20057;-66
2021/12/06 03:29:10;;;;;;;6.20;2.58;;;2.40;99.90;;;;;;10382914;28;20076;-66
2021/12/06 03:34:13;;;;;;;5.95;1.95;;;2.40;99.90;;;;;;10386377;28;20123;-66
2021/12/06 03:39:25;;;;;;;4.97;1.50;;;2.30;99.90;;;;;;10383137;28;20135;-66
2021/12/06 03:44:28;;;;;;;8.35;2.47;;;2.30;99.90;;;;;;10384402;28;20550;-66
2021/12/06 03:49:30;;;;;;;4.85;2.33;;;2.30;99.90;;;;;;10383247;28;20561;-66
2021/12/06 03:54:32;;;;;;;8.68;2.10;;;2.30;99.90;;;;;;10386283;28;20049;-66
2021/12/06 03:59:35;;;;;;;9.07;1.95;;;2.40;99.90;;;;;;10382711;28;20103;-66
2021/12/06 04:04:36;;;;;;;4.05;1.70;;;2.40;99.90;;;;;;10383408;28;20056;-66
2021/12/06 04:09:38;;;;;;;4.07;1.75;;;2.40;99.90;;;;;;10388142;28;20111;-66
2021/12/06 04:14:41;;;;;;;5.75;2.33;;;2.40;99.90;;;;;;10381644;28;20112;-66
2021/12/06 04:19:44;;;;;;;6.70;2.53;;;2.40;99.90;;;;;;10387031;28;20107;-66
2021/12/06 04:24:46;;;;;;;3.10;1.65;;;2.50;99.90;;;;;;10383157;28;20128;-65
2021/12/06 04:29:51;;;;;;;3.45;2.10;;;2.50;99.90;;;;;;10383251;28;20045;-64
2021/12/06 04:34:53;;;;;;;5.82;2.20;;;2.50;99.90;;;;;;10386163;28;20453;-64
2021/12/06 04:39:54;;;;;;;4.38;2.08;;;2.50;99.90;;;;;;10384007;28;20435;-64
2021/12/06 04:44:56;;;;;;;7.18;2.35;;;2.50;99.90;;;;;;10384001;28;20557;-64
2021/12/06 04:49:58;;;;;;;5.28;2.40;;;2.50;99.90;;;;;;10384832;28;20075;-64
2021/12/06 04:55:05;;;;;;;5.55;2.42;;;2.50;99.90;;;;;;10384238;28;20076;-64
2021/12/06 05:00:27;;;;;;;3.85;2.30;;;2.50;99.90;;;;;;10384036;28;20053;-64
2021/12/06 05:05:38;;;;;;;6.55;3.13;;;2.50;99.90;;;;;;10384306;28;20053;-64
2021/12/06 05:10:41;;;;;;;8.48;3.15;;;2.50;99.90;;;;;;10389965;28;20061;-64
2021/12/06 05:15:43;;;;;;;3.95;1.90;;;2.50;99.90;;;;;;10390249;28;20171;-64
2021/12/06 05:20:45;;;;;;;10.00;4.72;;;2.60;99.90;;;;;;10389686;28;20080;-64
2021/12/06 05:25:47;;;;;;;6.70;2.88;;;2.60;99.90;;;;;;10391324;28;20107;-64
2021/12/06 05:30:54;;;;;;;7.72;2.50;;;2.60;99.90;;;;;;10390356;28;20046;-64
2021/12/06 05:36:01;;;;;;;5.28;2.05;;;2.60;99.90;;;;;;10386849;28;20049;-64
2021/12/06 05:41:03;;;;;;;9.23;2.97;;;2.70;99.90;;;;;;10384405;28;20096;-62
2021/12/06 05:46:04;;;;;;;9.88;2.70;;;2.70;99.90;;;;;;10393617;28;20054;-62
2021/12/06 05:51:06;;;;;;;5.35;2.58;;;2.70;99.90;;;;;;10388911;28;20057;-62
2021/12/06 05:56:08;;;;;;;4.35;2.00;;;2.70;99.90;;;;;;10390832;28;20115;-62
2021/12/06 06:01:10;;;;;;;6.53;2.80;;;2.70;99.90;;;;;;10388106;28;20041;-62
2021/12/06 06:06:17;;;;;;;8.27;3.25;;;2.70;99.90;;;;;;10389892;28;20057;-62
2021/12/06 06:11:19;;;;;;;4.90;2.80;;;2.70;99.90;;;;;;10386844;28;20111;-62
2021/12/06 06:16:22;;;;;;;8.90;2.85;;;2.70;99.90;;;;;;10387696;28;20099;-62
2021/12/06 06:21:24;;;;;;;7.28;2.80;;;2.70;99.90;;;;;;10384738;28;20053;-62
2021/12/06 06:26:26;;;;;;;11.52;6.38;;;2.70;99.90;;;;;;10385151;28;20440;-62
2021/12/06 06:31:28;;;;;;;10.77;3.95;;;2.70;99.90;;;;;;10386761;28;20076;-62
2021/12/06 06:36:30;;;;;;;6.57;3.67;;;2.70;99.90;;;;;;10388646;28;20388;-62
2021/12/06 06:41:31;;;;;;;8.25;3.47;;;2.70;99.90;;;;;;10385736;28;20045;-62
2021/12/06 06:46:33;;;;;;;11.15;4.93;;;2.70;99.90;;;;;;10386384;28;20084;-62
2021/12/06 06:51:35;;;;;;;7.65;3.33;;;2.70;99.90;;;;;;10387374;28;20049;-62
2021/12/06 06:56:37;;;;;;;10.98;3.90;;;2.70;99.90;;;;;;10387020;28;20496;-62
2021/12/06 07:01:39;;;;;;;8.07;3.50;;;2.70;99.90;;;;;;10381963;28;20496;-61
2021/12/06 07:06:44;;;;;;;6.38;3.60;;;2.70;99.90;;;;;;10388099;28;20135;-62
2021/12/06 07:11:46;;;;;;;11.68;4.35;;;2.70;99.90;;;;;;10377137;28;20122;-61
2021/12/06 07:16:48;;;;;;;7.80;3.40;;;2.70;99.90;;;;;;10384640;28;20488;-64
2021/12/06 07:21:50;;;;;;;8.77;3.83;;;2.70;99.90;;;;;;10385036;28;20050;-64
2021/12/06 07:26:52;;;;;;;9.52;4.93;;;3.00;99.90;;;;;;10385422;28;20421;-64
2021/12/06 07:31:54;;;;;;;9.98;4.55;;;3.00;99.90;;;;;;10383334;28;20053;-64
2021/12/06 07:36:56;;;;;;;9.95;3.25;;;3.00;99.90;;;;;;10387890;28;20479;-63
2021/12/06 07:41:58;;;;;;;15.00;6.07;;;3.00;99.90;;;;;;10386551;28;20053;-63
2021/12/06 07:47:00;;;;;;;12.77;4.22;;;2.90;99.90;;;;;;10381813;28;20061;-64
2021/12/06 07:52:02;;;;;;;8.52;4.22;;;2.90;99.90;;;;;;10384710;28;20053;-64
2021/12/06 07:57:05;;;;;;;18.60;6.32;;;3.00;99.90;;;;;;10383547;28;20045;-64
2021/12/06 08:02:08;;;;;;;12.55;6.28;;;2.90;99.90;;;;;;10383165;28;20077;-64
2021/12/06 08:07:10;;;;;;;15.15;5.80;;;3.00;99.90;;;;;;10385687;28;20054;-63
2021/12/06 08:12:11;;;;;;;12.02;5.90;;;3.00;99.90;;;;;;10385908;28;20562;-63
2021/12/06 08:17:15;;;;;;;15.93;6.43;;;3.00;99.90;;;;;;10383080;28;20471;-63
2021/12/06 08:22:17;;;;;;;11.93;5.60;;;2.90;99.90;;;;;;10383534;28;20054;-63
2021/12/06 08:27:18;;;;;;;9.05;4.35;;;3.10;99.90;;;;;;10381881;28;20060;-64
2021/12/06 08:32:20;;;;;;;10.70;4.93;;;3.20;99.90;;;;;;10382612;28;20056;-63
2021/12/06 08:37:22;;;;;;;12.88;6.38;;;3.20;99.90;;;;;;10383734;28;20084;-63
2021/12/06 08:42:24;;;;;;;10.60;5.22;;;3.20;99.90;;;;;;10385430;28;20042;-63
2021/12/06 08:47:26;;;;;;;13.07;4.95;;;3.30;99.90;;;;;;10392649;28;20080;-63
2021/12/06 08:52:28;;;;;;;11.73;6.05;;;3.30;99.90;;;;;;10389633;28;20045;-63
2021/12/06 08:57:29;;;;;;;11.73;6.00;;;3.20;99.90;;;;;;10384722;28;20069;-63
2021/12/06 09:02:31;;;;;;;11.85;5.93;;;3.40;99.90;;;;;;10390689;28;20108;-63
2021/12/06 09:07:53;;;;;;;11.18;5.00;;;3.30;99.90;;;;;;10394031;28;20057;-64
2021/12/06 09:12:55;;;;;;;9.82;5.10;;;3.30;99.90;;;;;;10386228;28;20045;-64
2021/12/06 09:17:58;;;;;;;11.10;5.32;;;3.20;99.90;;;;;;10386011;28;20041;-64
2021/12/06 09:23:00;;;;;;;13.32;6.15;;;3.30;99.90;;;;;;10386504;28;20095;-64
2021/12/06 09:28:02;;;;;;;12.50;5.63;;;3.10;99.90;;;;;;10390033;28;20135;-64
2021/12/06 09:33:07;;;;;;;11.55;5.95;;;3.10;99.90;;;;;;10392760;28;20064;-64
2021/12/06 09:38:12;;;;;;;13.20;5.88;;;3.10;99.90;;;;;;10389837;28;20069;-64
2021/12/06 09:43:14;;;;;;;15.55;5.90;;;3.00;99.90;;;;;;10384933;28;20123;-63
2021/12/06 09:48:18;;;;;;;15.77;5.97;;;2.90;99.90;;;;;;10391448;28;20046;-63
2021/12/06 09:53:24;;;;;;;18.88;7.10;;;2.90;99.90;;;;;;10382145;28;20041;-63
2021/12/06 09:58:26;;;;;;;17.08;5.72;;;2.90;99.90;;;;;;10389773;28;20045;-62
2021/12/06 10:03:29;;;;;;;17.80;7.22;;;3.00;99.90;;;;;;10388109;28;20103;-62
2021/12/06 10:08:35;;;;;;;18.33;6.18;;;3.00;99.90;;;;;;10385309;28;20057;-62
2021/12/06 10:13:39;;;;;;;17.08;7.07;;;3.10;99.90;;;;;;10386116;28;20077;-63
2021/12/06 10:18:41;;;;;;;20.73;6.60;;;3.30;99.90;;;;;;10387763;28;20131;-63
2021/12/06 10:23:44;;;;;;;24.75;7.95;;;3.50;99.90;;;;;;10385008;28;20053;-63
2021/12/06 10:28:46;;;;;;;17.55;7.10;;;3.80;99.90;;;;;;10388034;28;20053;-63
2021/12/06 10:33:48;;;;;;;16.13;6.60;;;3.90;99.90;;;;;;10385040;28;20451;-62
2021/12/06 10:38:53;;;;;;;16.25;7.43;;;4.00;99.90;;;;;;10379960;28;20062;-62
2021/12/06 10:44:11;;;;;;;16.60;7.68;;;4.20;99.90;;;;;;10382198;28;20107;-62
2021/12/06 10:49:17;;;;;;;17.42;6.90;;;4.20;99.90;;;;;;10377494;28;20484;-62
2021/12/06 10:54:32;;;;;;;13.63;7.55;;;4.30;99.90;;;;;;10384035;28;20049;-62
2021/12/06 10:59:39;;;;;;;19.13;8.32;;;4.40;99.90;;;;;;10378991;28;20557;-63
2021/12/06 11:04:42;;;;;;;17.42;8.63;;;4.40;99.90;;;;;;10379192;28;20049;-63
2021/12/06 11:09:46;;;;;;;18.08;9.25;;;4.40;99.90;;;;;;10383354;28;20079;-62
2021/12/06 11:14:49;;;;;;;16.38;8.25;;;4.50;99.90;;;;;;10378950;28;20069;-62
2021/12/06 11:19:51;;;;;;;15.98;8.23;;;4.50;99.90;;;;;;10382251;28;20145;-62
2021/12/06 11:24:54;;;;;;;14.98;6.93;;;4.50;99.90;;;;;;10382160;28;20046;-62
2021/12/06 11:30:08;;;;;;;15.73;8.05;;;4.70;99.90;;;;;;10380477;28;20131;-62
2021/12/06 11:35:20;;;;;;;20.20;8.65;;;4.80;99.90;;;;;;10382885;28;20057;-62
2021/12/06 11:40:24;;;;;;;14.77;6.97;;;4.80;99.90;;;;;;10384622;28;20049;-62
2021/12/06 11:45:42;;;;;;;16.77;6.78;;;4.90;99.90;;;;;;10381680;28;20041;-62
2021/12/06 11:51:08;;;;;;;19.85;8.40;;;5.00;99.90;;;;;;10381917;28;20060;-62
2021/12/06 11:56:18;;;;;;;13.02;5.82;;;5.00;99.90;;;;;;10383554;28;20045;-62
2021/12/06 12:01:34;;;;;;;17.25;8.25;;;5.20;99.90;;;;;;10376223;28;20076;-62
2021/12/06 12:06:38;;;;;;;19.13;8.82;;;5.20;99.90;;;;;;10384705;28;20053;-62
2021/12/06 12:12:20;;;;;;;22.00;10.23;;;5.20;99.90;;;;;;10382859;28;20049;-62
2021/12/06 12:17:26;;;;;;;22.75;10.00;;;5.30;99.90;;;;;;10382158;28;20061;-63
2021/12/06 12:22:33;;;;;;;16.52;8.68;;;5.40;99.90;;;;;;10371271;28;20045;-60
2021/12/06 12:33:07;;;;;;;15.32;7.20;;;5.20;99.90;;;;;;10363471;28;20038;-62
2021/12/06 12:38:11;;;;;;;17.35;7.50;;;5.00;99.90;;;;;;10384990;28;20047;-62
2021/12/06 12:43:17;;;;;;;15.25;6.22;;;5.00;99.90;;;;;;10381494;28;20052;-62
2021/12/06 12:48:25;;;;;;;15.02;7.68;;;5.00;99.90;;;;;;10385960;28;20053;-61
2021/12/06 12:53:27;;;;;;;19.35;7.80;;;4.90;99.90;;;;;;10383254;28;20065;-62
2021/12/06 12:58:30;;;;;;;17.50;8.05;;;4.90;99.90;;;;;;10384248;28;20467;-61
2021/12/06 13:03:38;;;;;;;17.63;7.13;;;5.00;99.90;;;;;;10381373;28;20061;-62
2021/12/06 13:08:40;;;;;;;;;;;5.10;99.90;;;;;;10384680;28;20057;-62
2021/12/06 13:13:49;;;;;;;18.70;7.32;;;5.00;99.90;;;;;;10382110;28;19924;-62
2021/12/06 13:24:25;;;;;;;15.77;6.85;;;5.00;99.90;;;;;;10382095;28;20045;-63
2021/12/06 13:29:48;;;;;;;13.27;6.38;;;5.10;99.90;;;;;;10381905;28;20053;-63
2021/12/06 13:34:54;;;;;;;15.63;6.38;;;5.10;99.90;;;;;;10390355;28;20163;-63
2021/12/06 13:40:13;;;;;;;15.85;7.13;;;5.10;99.90;;;;;;10386119;28;20050;-63
2021/12/06 13:45:21;;;;;;;18.63;6.47;;;5.00;99.90;;;;;;10386883;28;20115;-64
2021/12/06 13:50:27;;;;;;;13.15;5.35;;;4.90;99.90;;;;;;10388877;28;20045;-63
2021/12/06 13:55:33;;;;;;;13.95;5.97;;;4.80;99.90;;;;;;10388023;28;20073;-63
2021/12/06 14:00:45;;;;;;;13.20;5.93;;;4.70;99.90;;;;;;10388456;28;20048;-62
2021/12/06 14:05:51;;;;;;;11.75;5.60;;;4.70;99.90;;;;;;10390840;28;20057;-62
2021/12/06 14:10:55;;;;;;;12.25;4.72;;;4.70;99.90;;;;;;10386511;28;20065;-62
2021/12/06 14:16:01;;;;;;;11.10;5.68;;;4.70;99.90;;;;;;10379168;28;20092;-61
2021/12/06 14:21:03;;;;;;;11.18;4.88;;;4.70;99.90;;;;;;10381223;28;20042;-62
2021/12/06 14:26:06;;;;;;;11.90;5.70;;;4.70;99.90;;;;;;10380269;28;20041;-62
2021/12/06 14:31:07;;;;;;;11.23;5.20;;;4.70;99.90;;;;;;10386126;28;20096;-62
2021/12/06 14:36:09;;;;;;;12.15;5.07;;;4.70;99.90;;;;;;10380735;28;20124;-62
2021/12/06 14:41:13;;;;;;;12.10;5.55;;;4.70;99.90;;;;;;10387079;28;20073;-62
2021/12/06 14:46:14;;;;;;;12.27;5.22;;;4.70;99.90;;;;;;10389209;28;20045;-61
2021/12/06 14:51:17;;;;;;;15.32;7.50;;;4.60;99.90;;;;;;10386845;28;20045;-62
2021/12/06 14:56:43;;;;;;;15.48;7.70;;;4.60;99.90;;;;;;10396946;28;20057;-63
2021/12/06 15:01:45;;;;;;;12.40;6.70;;;4.50;99.90;;;;;;10383139;28;20049;-64
2021/12/06 15:06:48;;;;;;;10.57;5.47;;;4.50;99.90;;;;;;10386708;28;20056;-62
2021/12/06 15:11:57;;;;;;;10.65;4.68;;;4.40;99.90;;;;;;10387583;28;20045;-62
2021/12/06 15:16:58;;;;;;;11.45;5.07;;;4.30;99.90;;;;;;10385117;28;20053;-61
2021/12/06 15:22:03;;;;;;;12.68;5.05;;;4.20;99.90;;;;;;10382961;28;20068;-62
2021/12/06 15:27:07;;;;;;;12.60;5.30;;;4.10;99.90;;;;;;10385942;28;20041;-63
2021/12/06 15:32:16;;;;;;;11.50;5.43;;;3.90;99.90;;;;;;10383546;28;20052;-62
2021/12/06 15:37:28;;;;;;;16.08;6.05;;;3.80;99.90;;;;;;10384498;28;20057;-62
2021/12/06 15:42:29;;;;;;;13.05;5.70;;;3.70;99.90;;;;;;10382749;28;20049;-63
2021/12/06 15:47:37;;;;;;;11.38;5.20;;;3.60;99.90;;;;;;10381009;28;20890;-61
2021/12/06 15:52:43;;;;;;;15.45;6.45;;;3.50;99.90;;;;;;10384605;28;20053;-63
2021/12/06 15:57:46;;;;;;;13.93;6.88;;;3.50;99.90;;;;;;10380785;28;20076;-62
2021/12/06 16:02:56;;;;;;;17.67;7.45;;;3.40;99.90;;;;;;10381190;28;20068;-62
2021/12/06 16:08:05;;;;;;;20.83;8.63;;;3.50;99.90;;;;;;10383381;28;20508;-62
2021/12/06 16:13:12;;;;;;;19.65;6.75;;;3.40;99.90;;;;;;10384208;28;20641;-62
2021/12/06 16:18:19;;;;;;;16.25;7.07;;;3.50;99.90;;;;;;10382841;28;20049;-62
2021/12/06 16:23:27;;;;;;;16.25;6.32;;;3.50;99.90;;;;;;10385003;28;20439;-62
2021/12/06 16:28:30;;;;;;;14.93;6.03;;;3.60;99.90;;;;;;10377181;28;20147;-63
2021/12/06 16:33:52;;;;;;;20.92;8.30;;;3.60;99.90;;;;;;10383223;28;20049;-63
2021/12/06 16:39:07;;;;;;;18.83;8.73;;;3.60;99.90;;;;;;10385719;28;20143;-62
2021/12/06 16:44:32;;;;;;;26.42;8.48;;;3.70;99.90;;;;;;10383487;28;20471;-61
2021/12/06 16:49:37;;;;;;;18.08;7.40;;;3.80;99.90;;;;;;10382502;28;20435;-62
2021/12/06 16:54:40;;;;;;;19.95;8.10;;;3.80;99.90;;;;;;10376408;28;20107;-63
2021/12/06 16:59:48;;;;;;;22.35;8.75;;;3.90;99.90;;;;;;10381388;28;20500;-62
2021/12/06 17:04:53;;;;;;;26.17;9.07;;;3.90;99.90;;;;;;10400003;28;20053;-61
2021/12/06 17:09:57;;;;;;;25.38;8.23;;;4.00;99.90;;;;;;10383673;28;20049;-62
2021/12/06 17:15:15;;;;;;;23.27;9.35;;;3.90;99.90;;;;;;10389024;28;20107;-63
2021/12/06 17:20:31;;;;;;;23.65;7.82;;;3.90;99.90;;;;;;10388991;28;20049;-63
2021/12/06 17:25:37;;;;;;;16.92;8.18;;;3.90;99.90;;;;;;10383307;28;20102;-63
2021/12/06 17:30:45;;;;;;;23.67;9.35;;;3.90;99.90;;;;;;10385288;28;20115;-63
2021/12/06 17:35:47;;;;;;;21.10;8.60;;;3.80;99.90;;;;;;10389147;28;20045;-62
2021/12/06 17:40:49;;;;;;;19.73;8.13;;;3.90;99.90;;;;;;10387130;28;20140;-62
2021/12/06 17:45:53;;;;;;;22.85;7.72;;;3.80;99.90;;;;;;10382421;28;20083;-62
2021/12/06 17:50:54;;;;;;;17.60;6.18;;;3.80;99.90;;;;;;10382526;28;20107;-63
2021/12/06 17:55:56;;;;;;;14.10;6.18;;;3.90;99.90;;;;;;10380646;28;20050;-62
2021/12/06 18:00:59;;;;;;;15.25;5.60;;;3.80;99.90;;;;;;10379800;28;20061;-62
2021/12/06 18:06:04;;;;;;;13.27;5.32;;;3.80;99.90;;;;;;10382247;28;20369;-62
2021/12/06 18:11:06;;;;;;;12.85;5.00;;;3.80;99.90;;;;;;10385669;28;20115;-63
2021/12/06 18:16:08;;;;;;;13.70;4.70;;;3.80;99.90;;;;;;10381015;28;20143;-64
2021/12/06 18:21:13;;;;;;;16.20;4.18;;;3.80;99.90;;;;;;10382676;28;20128;-62
2021/12/06 18:26:14;;;;;;;10.45;3.63;;;3.80;99.90;;;;;;10381713;28;20050;-63
2021/12/06 18:31:16;;;;;;;8.40;3.30;;;3.80;99.90;;;;;;10380948;28;20095;-63
2021/12/06 18:36:21;;;;;;;8.32;3.10;;;3.80;99.90;;;;;;10382851;28;20057;-64
2021/12/06 18:41:23;;;;;;;10.35;3.08;;;3.80;99.90;;;;;;10383641;28;20117;-63
2021/12/06 18:46:25;;;;;;;4.75;1.88;;;3.80;99.90;;;;;;10388739;28;20069;-62
2021/12/06 18:51:27;;;;;;;8.05;1.98;;;3.80;99.90;;;;;;10388001;28;20137;-62
2021/12/06 18:56:28;;;;;;;5.70;2.22;;;3.80;99.90;;;;;;10387948;28;20053;-62
2021/12/06 19:01:30;;;;;;;7.05;2.25;;;3.80;99.90;;;;;;10381324;28;20046;-61
2021/12/06 19:06:32;;;;;;;5.68;1.55;;;3.80;99.90;;;;;;10385862;28;20503;-62
2021/12/06 19:11:41;;;;;;;2.90;1.58;;;3.70;99.90;;;;;;10383479;28;20123;-62
2021/12/06 19:17:07;;;;;;;4.30;1.50;;;3.60;99.90;;;;;;10382631;28;20522;-62
2021/12/06 19:22:11;;;;;;;4.32;1.55;;;3.50;99.90;;;;;;10380232;28;20050;-62
2021/12/06 19:27:13;;;;;;;5.38;1.35;;;3.50;99.90;;;;;;10381837;28;20049;-62
2021/12/06 19:32:15;;;;;;;4.57;1.50;;;3.50;99.90;;;;;;10364614;28;20131;-62
2021/12/06 19:37:18;;;;;;;7.35;2.15;;;3.50;99.90;;;;;;10379516;28;20053;-63
2021/12/06 19:42:20;;;;;;;5.05;1.83;;;3.50;99.90;;;;;;10377453;28;20077;-63
2021/12/06 19:47:24;;;;;;;6.05;2.17;;;3.50;99.90;;;;;;10377248;28;20142;-63
2021/12/06 19:52:27;;;;;;;4.60;2.03;;;3.40;99.90;;;;;;10369343;28;20053;-63
2021/12/06 19:57:29;;;;;;;4.63;2.13;;;3.40;99.90;;;;;;10375556;28;20104;-63
2021/12/06 20:02:31;;;;;;;9.35;2.58;;;3.40;99.90;;;;;;10371645;28;20126;-63
2021/12/06 20:07:33;;;;;;;4.72;2.40;;;3.40;99.90;;;;;;10380517;28;20470;-63
2021/12/06 20:12:34;;;;;;;8.02;2.45;;;3.40;99.90;;;;;;10380630;28;20053;-63
2021/12/06 20:17:37;;;;;;;7.05;2.83;;;3.40;99.90;;;;;;10382126;28;20050;-63
2021/12/06 20:22:39;;;;;;;8.60;2.42;;;3.40;99.90;;;;;;10385014;28;20063;-63
2021/12/06 20:27:43;;;;;;;8.60;2.88;;;3.40;99.90;;;;;;10384902;28;20507;-63
2021/12/06 20:32:47;;;;;;;6.68;2.65;;;3.40;99.90;;;;;;10384570;28;20076;-63
2021/12/06 20:37:49;;;;;;;5.88;2.25;;;3.40;99.90;;;;;;10385218;28;20049;-63
2021/12/06 20:42:52;;;;;;;8.48;3.45;;;3.40;99.90;;;;;;10382298;28;20077;-63
2021/12/06 20:47:54;;;;;;;6.20;2.90;;;3.30;99.90;;;;;;10384091;28;20141;-63
2021/12/06 20:52:59;;;;;;;6.25;2.70;;;3.30;99.90;;;;;;10380883;28;20050;-63
2021/12/06 20:58:01;;;;;;;7.35;3.13;;;3.30;99.90;;;;;;10383129;28;20068;-63
2021/12/06 21:03:04;;;;;;;7.22;2.75;;;3.40;99.90;;;;;;10384443;28;20050;-63
2021/12/06 21:08:07;;;;;;;5.03;2.50;;;3.40;99.90;;;;;;10382444;28;20518;-63
2021/12/06 21:18:24;;;;;;;7.32;2.97;;;3.30;99.90;;;;;;10385583;28;20483;-63
2021/12/06 21:23:27;;;;;;;5.70;2.53;;;3.30;99.90;;;;;;10379503;28;20045;-63
2021/12/06 21:28:29;;;;;;;10.27;2.72;;;3.30;99.90;;;;;;10378379;28;20153;-62
2021/12/06 21:33:31;;;;;;;9.90;3.55;;;3.20;99.90;;;;;;10381431;28;20076;-63
2021/12/06 21:38:34;;;;;;;7.50;3.47;;;3.20;99.90;;;;;;10383392;28;20058;-63
2021/12/06 21:43:36;;;;;;;9.20;3.78;;;3.20;99.90;;;;;;10382445;28;20061;-62
2021/12/06 21:48:38;;;;;;;9.15;4.22;;;3.30;99.90;;;;;;10380961;28;20445;-62
2021/12/06 21:53:40;;;;;;;9.35;3.35;;;3.20;99.90;;;;;;10384872;28;20045;-62
2021/12/06 21:58:41;;;;;;;6.78;3.00;;;3.20;99.90;;;;;;10391135;28;20057;-62
2021/12/06 22:09:00;;;;;;;6.83;2.83;;;3.20;99.90;;;;;;10388874;28;20075;-62
2021/12/06 22:14:07;;;;;;;5.95;2.53;;;3.20;99.90;;;;;;10384826;28;20045;-62
2021/12/06 22:19:10;;;;;;;6.20;2.90;;;3.30;99.90;;;;;;10386989;28;20053;-62
2021/12/06 22:24:12;;;;;;;7.68;2.85;;;3.30;99.90;;;;;;10386982;28;20573;-62
2021/12/06 22:29:14;;;;;;;7.45;2.97;;;3.30;99.90;;;;;;10389874;28;20099;-62
2021/12/06 22:34:15;;;;;;;8.32;3.63;;;3.40;99.90;;;;;;10388052;28;20041;-62
2021/12/06 22:39:18;;;;;;;8.15;3.30;;;3.40;99.90;;;;;;10387451;28;20099;-62
2021/12/06 22:44:20;;;;;;;5.10;2.65;;;3.40;99.90;;;;;;10391860;28;20482;-62
2021/12/06 22:49:22;;;;;;;10.55;3.20;;;3.40;99.90;;;;;;10387868;28;20111;-62
2021/12/06 22:54:24;;;;;;;7.97;2.75;;;3.40;99.90;;;;;;10389204;28;20057;-63
2021/12/06 22:59:31;;;;;;;7.18;3.20;;;3.40;99.90;;;;;;10368627;28;20045;-64
2021/12/06 23:04:32;;;;;;;8.60;3.20;;;3.30;99.90;;;;;;10386087;28;20076;-64
2021/12/06 23:09:34;;;;;;;7.47;2.85;;;3.30;99.90;;;;;;10387529;28;20397;-63
2021/12/06 23:14:38;;;;;;;6.47;3.03;;;3.20;99.90;;;;;;10385106;28;20130;-63
2021/12/06 23:19:41;;;;;;;7.50;3.58;;;3.20;99.90;;;;;;10384050;28;20057;-61
2021/12/06 23:24:43;;;;;;;9.52;3.28;;;3.10;99.90;;;;;;10385074;28;20392;-61
2021/12/06 23:29:45;;;;;;;6.15;3.10;;;3.00;99.90;;;;;;10386195;28;20057;-60
2021/12/06 23:34:51;;;;;;;5.88;2.22;;;2.80;99.90;;;;;;10387391;28;20077;-60
2021/12/06 23:40:11;;;;;;;5.30;1.90;;;2.70;99.90;;;;;;10384536;28;20042;-60
2021/12/06 23:50:33;;;;;;;6.50;1.38;;;2.40;99.90;;;;;;10384041;28;20080;-60
2021/12/06 23:55:36;;;;;;;3.97;1.10;;;2.30;99.90;;;;;;10385859;28;20060;-59
